Trans Future 10 — 3FEN2 — position and weather

sailwx.info

Track history (hours):
 
Tides and Currents Weather Stations Pressure Air Temp Water Temp Dewpoint Dewpoint Depression Visibility Wind Speed Wind Dir Waves Ship Positions

Trans Future 10

Last reported at 2018-Jun-19 23:18 UTC. Time now 2018-Jun-23 11:43 UTC.
Position N 01°24' E 104°28'.

Length 166 m; draft 6.6 m.

Type: Cargo ship. MMSI: 356143000.

Date/timePositionNaut miles runAvg speedWind from/ knotsBaromVisibWave heightAir tempDewpointWater temp
2018-Jun-19 23:18N 01°24' E 104°28'619.3
2018-Jun-19 22:57N 01°20' E 104°23'918.3
2018-Jun-19 22:29N 01°17' E 104°15'918.4
2018-Jun-19 22:00N 01°15' E 104°06'918.3
2018-Jun-19 21:31N 01°14' E 103°57'816.7
2018-Jun-19 21:00N 01°11' E 103°49'510.9
2018-Jun-19 20:30N 01°15' E 103°46'2 3.3
2018-Jun-19 19:59N 01°17' E 103°45'0 0.0
2018-Jun-19 19:29N 01°17' E 103°45'0 0.0
2018-Jun-19 18:59N 01°17' E 103°45'0 0.0
2018-Jun-19 18:29N 01°17' E 103°45'0 0.0
2018-Jun-19 17:59N 01°17' E 103°45'0 0.0
2018-Jun-19 17:26N 01°17' E 103°45'0 0.0
2018-Jun-19 16:59N 01°17' E 103°45'0 0.0
2018-Jun-19 16:28N 01°17' E 103°45'0 0.0
2018-Jun-19 15:59N 01°17' E 103°45'0 0.0
2018-Jun-19 15:28N 01°17' E 103°45'0 0.0
2018-Jun-19 14:55N 01°17' E 103°45'0 0.0
2018-Jun-19 14:28N 01°17' E 103°45'0 0.0
2018-Jun-19 13:56N 01°17' E 103°45'0 0.0
2018-Jun-19 13:29N 01°17' E 103°45'0 0.0
2018-Jun-19 12:59N 01°17' E 103°45'0 0.0
2018-Jun-19 12:29N 01°17' E 103°45'0 0.0
2018-Jun-19 11:59N 01°17' E 103°45'0 0.0
2018-Jun-19 11:29N 01°17' E 103°45'0 0.0
2018-Jun-19 10:58N 01°17' E 103°45'0 0.0
2018-Jun-19 09:58N 01°17' E 103°45'0 0.0
2018-Jun-19 09:29N 01°17' E 103°45'0 0.0
2018-Jun-19 09:00N 01°17' E 103°45'1 1.6
2018-Jun-19 08:30N 01°16' E 103°45'3 6.2
2018-Jun-19 08:00N 01°14' E 103°43'611.4
2018-Jun-19 07:30N 01°12' E 103°37'4 7.9
2018-Jun-19 07:00N 01°10' E 103°34'4 8.1
2018-Jun-19 06:30N 01°09' E 103°30'712.8
2018-Jun-19 05:59N 01°12' E 103°24'917.8
2018-Jun-19 05:29N 01°17' E 103°17'15 0.3
2018-Jun-17 01:49N 01°30' E 103°09'820.1
2018-Jun-17 01:27N 01°25' E 103°14'920.8
2018-Jun-17 01:00N 01°19' E 103°21'1019.7
2018-Jun-17 00:30N 01°13' E 103°29'1020.3
2018-Jun-17 00:00N 01°11' E 103°39'816.4
2018-Jun-16 23:30N 01°10' E 103°47'816.3
2018-Jun-16 23:00N 01°13' E 103°54'917.7
2018-Jun-16 22:30N 01°16' E 104°03'918.0
2018-Jun-16 21:59N 01°17' E 104°12'916.5
2018-Jun-16 21:27N 01°19' E 104°21'716.3
2018-Jun-16 21:00N 01°24' E 104°26'916.7
2018-Jun-16 20:27N 01°30' E 104°33'3017.6
2018-Jun-16 18:44N 02°00' E 104°37'  
Track history (hours):
 
Tides and Currents Weather Stations Pressure Air Temp Water Temp Dewpoint Dewpoint Depression Visibility Wind Speed Wind Dir Waves Ship Positions

Trans Future 10

Last reported at 2018-Jun-19 23:18 UTC. Time now 2018-Jun-23 11:43 UTC.
Position N 01°24' E 104°28'.

Length 166 m; draft 6.6 m.

Type: Cargo ship. MMSI: 356143000.

Date/timePositionNaut miles runAvg speedWind from/ knotsBaromVisibWave heightAir tempDewpointWater temp
2018-Jun-19 23:18N 01°24' E 104°28'619.3
2018-Jun-19 22:57N 01°20' E 104°23'918.3
2018-Jun-19 22:29N 01°17' E 104°15'918.4
2018-Jun-19 22:00N 01°15' E 104°06'918.3
2018-Jun-19 21:31N 01°14' E 103°57'816.7
2018-Jun-19 21:00N 01°11' E 103°49'510.9
2018-Jun-19 20:30N 01°15' E 103°46'2 3.3
2018-Jun-19 19:59N 01°17' E 103°45'0 0.0
2018-Jun-19 19:29N 01°17' E 103°45'0 0.0
2018-Jun-19 18:59N 01°17' E 103°45'0 0.0
2018-Jun-19 18:29N 01°17' E 103°45'0 0.0
2018-Jun-19 17:59N 01°17' E 103°45'0 0.0
2018-Jun-19 17:26N 01°17' E 103°45'0 0.0
2018-Jun-19 16:59N 01°17' E 103°45'0 0.0
2018-Jun-19 16:28N 01°17' E 103°45'0 0.0
2018-Jun-19 15:59N 01°17' E 103°45'0 0.0
2018-Jun-19 15:28N 01°17' E 103°45'0 0.0
2018-Jun-19 14:55N 01°17' E 103°45'0 0.0
2018-Jun-19 14:28N 01°17' E 103°45'0 0.0
2018-Jun-19 13:56N 01°17' E 103°45'0 0.0
2018-Jun-19 13:29N 01°17' E 103°45'0 0.0
2018-Jun-19 12:59N 01°17' E 103°45'0 0.0
2018-Jun-19 12:29N 01°17' E 103°45'0 0.0
2018-Jun-19 11:59N 01°17' E 103°45'0 0.0
2018-Jun-19 11:29N 01°17' E 103°45'0 0.0
2018-Jun-19 10:58N 01°17' E 103°45'0 0.0
2018-Jun-19 09:58N 01°17' E 103°45'0 0.0
2018-Jun-19 09:29N 01°17' E 103°45'0 0.0
2018-Jun-19 09:00N 01°17' E 103°45'1 1.6
2018-Jun-19 08:30N 01°16' E 103°45'3 6.2
2018-Jun-19 08:00N 01°14' E 103°43'611.4
2018-Jun-19 07:30N 01°12' E 103°37'4 7.9
2018-Jun-19 07:00N 01°10' E 103°34'4 8.1
2018-Jun-19 06:30N 01°09' E 103°30'712.8
2018-Jun-19 05:59N 01°12' E 103°24'917.8
2018-Jun-19 05:29N 01°17' E 103°17'15 0.3
2018-Jun-17 01:49N 01°30' E 103°09'820.1
2018-Jun-17 01:27N 01°25' E 103°14'920.8
2018-Jun-17 01:00N 01°19' E 103°21'1019.7
2018-Jun-17 00:30N 01°13' E 103°29'1020.3
2018-Jun-17 00:00N 01°11' E 103°39'816.4
2018-Jun-16 23:30N 01°10' E 103°47'816.3
2018-Jun-16 23:00N 01°13' E 103°54'917.7
2018-Jun-16 22:30N 01°16' E 104°03'918.0
2018-Jun-16 21:59N 01°17' E 104°12'916.5
2018-Jun-16 21:27N 01°19' E 104°21'716.3
2018-Jun-16 21:00N 01°24' E 104°26'916.7
2018-Jun-16 20:27N 01°30' E 104°33'3017.6
2018-Jun-16 18:44N 02°00' E 104°37'  

Dump ship's entire track history